Austin, Texas
Traffic Map
Current Weather Conditions
Austin, Texas
Clear
Clear
80°
Feels Like: 84°
Wind Chill: 80° Ceiling: Unl
Heat Index: 84° Visibility: 10mi
Dew Point: 73° Wind: 0mph
Humidity: 79% Direction: ° ()
Pressure: 29.98in Gusts: 0mph
Raw Report DataKATT 300751Z AUTO 00000KT 10SM CLR 27/23 A2998 RMK AO2 SLP135 T02670228
Traffic Incident Summary
Active as of:
Severity:
Category:
InformationThere was an issue retrieving the traffic information for this location. Please try a different location or try again shortly.
Advertisements
Track Severe Weather on mobile